createdAt,value
2022-12-11T00:01:22.124Z,99707.47
2022-12-11T00:03:50.731Z,99703.38
2022-12-11T00:06:23.147Z,99704.13
2022-12-11T00:08:56.028Z,99701.38
2022-12-11T00:11:25.152Z,99709.72
2022-12-11T00:13:53.590Z,99694.91
2022-12-11T00:16:26.698Z,99703.75
2022-12-11T00:18:56.208Z,99705.91
2022-12-11T00:21:24.720Z,99698.28
2022-12-11T00:23:53.091Z,99706.44
2022-12-11T00:26:21.684Z,99699.91
2022-12-11T00:28:53.147Z,99702.06
2022-12-11T00:31:22.503Z,99702.16
2022-12-11T00:33:51.519Z,99693.31
2022-12-11T00:36:24.750Z,99704.06
2022-12-11T00:38:53.824Z,99698.94
2022-12-11T00:41:22.765Z,99695.75
2022-12-11T00:43:51.503Z,99699.41
2022-12-11T00:46:20.153Z,99702.22
2022-12-11T00:48:50.153Z,99705.22
2022-12-11T00:51:19.303Z,99702.69
2022-12-11T00:53:48.128Z,99703.53
2022-12-11T00:56:20.843Z,99700.69
2022-12-11T00:58:50.419Z,99696.47
2022-12-11T01:01:23.446Z,99696.84
2022-12-11T01:03:52.579Z,99705.66
2022-12-11T01:06:24.720Z,99700.00
2022-12-11T01:09:14.429Z,99707.84
2022-12-11T01:11:43.282Z,99714.84
2022-12-11T01:14:12.922Z,99705.53
2022-12-11T01:16:41.654Z,99711.66
2022-12-11T01:19:10.156Z,99720.53
2022-12-11T01:21:38.566Z,99722.44
2022-12-11T01:24:07.437Z,99715.06
2022-12-11T01:26:36.107Z,99720.06
2022-12-11T01:29:04.743Z,99715.75
2022-12-11T01:31:34.039Z,99719.19
2022-12-11T01:34:02.607Z,99713.13
2022-12-11T01:36:31.087Z,99718.28
2022-12-11T01:38:59.580Z,99717.66
2022-12-11T01:41:28.167Z,99717.53
2022-12-11T01:44:19.477Z,99719.84
2022-12-11T01:46:48.055Z,99720.06
2022-12-11T01:49:19.040Z,99718.06
2022-12-11T01:52:13.474Z,99730.75
2022-12-11T01:54:42.232Z,99727.59
2022-12-11T01:57:12.746Z,99730.59
2022-12-11T01:59:46.602Z,99726.28
2022-12-11T02:02:26.196Z,99728.34
2022-12-11T02:04:54.915Z,99723.09
2022-12-11T02:07:23.582Z,99713.84
2022-12-11T02:09:52.120Z,99719.06
2022-12-11T02:13:01.606Z,99714.81
2022-12-11T02:16:03.911Z,99721.00
2022-12-11T02:19:01.685Z,99720.59
2022-12-11T02:22:00.110Z,99721.97
2022-12-11T02:24:47.034Z,99716.97
2022-12-11T02:27:34.972Z,99711.06
2022-12-11T02:30:09.778Z,99716.72
2022-12-11T02:33:00.319Z,99715.56
2022-12-11T02:35:45.476Z,99718.66
2022-12-11T02:38:23.339Z,99712.72
2022-12-11T02:40:54.607Z,99708.78
2022-12-11T02:43:24.510Z,99710.66
2022-12-11T02:45:55.198Z,99713.75
2022-12-11T02:48:25.778Z,99715.88
2022-12-11T02:50:58.025Z,99710.31
2022-12-11T02:53:30.849Z,99713.31
2022-12-11T02:56:20.872Z,99708.19
2022-12-11T02:59:01.749Z,99717.94
2022-12-11T03:01:30.393Z,99716.63
2022-12-11T03:03:59.729Z,99718.69
2022-12-11T03:06:45.768Z,99703.69
2022-12-11T03:09:14.575Z,99704.28
2022-12-11T03:11:43.085Z,99704.50
2022-12-11T03:14:11.727Z,99698.69
2022-12-11T03:16:44.911Z,99698.22
2022-12-11T03:19:36.522Z,99699.16
2022-12-11T03:22:27.480Z,99702.38
2022-12-11T03:25:04.762Z,99702.75
2022-12-11T03:27:49.843Z,99697.16
2022-12-11T03:30:21.696Z,99694.44
2022-12-11T03:33:11.975Z,99679.81
2022-12-11T03:35:46.457Z,99682.41
2022-12-11T03:38:38.849Z,99685.16
2022-12-11T03:41:09.684Z,99693.69
2022-12-11T03:43:38.814Z,99690.88
2022-12-11T03:46:09.203Z,99693.38
2022-12-11T03:48:41.931Z,99694.06
2022-12-11T03:51:10.847Z,99694.31
2022-12-11T03:53:40.316Z,99692.16
2022-12-11T03:56:11.924Z,99698.38
2022-12-11T03:58:40.591Z,99690.84
2022-12-11T04:01:13.215Z,99694.53
2022-12-11T04:03:41.724Z,99696.09
2022-12-11T04:06:10.199Z,99691.09
2022-12-11T04:08:38.643Z,99694.41
2022-12-11T04:11:24.392Z,99699.72
2022-12-11T04:14:12.814Z,99693.91
2022-12-11T04:16:40.284Z,99702.34
2022-12-11T04:19:27.505Z,99699.22
2022-12-11T04:22:27.914Z,99696.03
2022-12-11T04:24:56.511Z,99705.66
2022-12-11T04:27:42.767Z,99706.97
2022-12-11T04:30:22.840Z,99709.81
2022-12-11T04:32:51.737Z,99707.22
2022-12-11T04:35:21.595Z,99703.69
2022-12-11T04:37:50.231Z,99709.06
2022-12-11T04:40:21.280Z,99695.28
2022-12-11T04:42:49.839Z,99688.75
2022-12-11T04:45:19.238Z,99692.47
2022-12-11T04:47:48.069Z,99696.16
2022-12-11T04:50:17.155Z,99704.25
2022-12-11T04:52:45.927Z,99700.19
2022-12-11T04:55:14.899Z,99691.75
2022-12-11T04:57:43.401Z,99696.88
2022-12-11T05:00:14.160Z,99688.19
2022-12-11T05:02:43.393Z,99695.06
2022-12-11T05:05:12.984Z,99690.81
2022-12-11T05:07:42.086Z,99699.13
2022-12-11T05:10:11.053Z,99692.34
2022-12-11T05:12:39.721Z,99678.22
2022-12-11T05:15:09.040Z,99692.22
2022-12-11T05:17:37.905Z,99697.34
2022-12-11T05:20:06.749Z,99681.75
2022-12-11T05:22:35.306Z,99674.63
2022-12-11T05:25:03.983Z,99685.22
2022-12-11T05:27:32.574Z,99689.13
2022-12-11T05:30:00.953Z,99681.47
2022-12-11T05:32:29.645Z,99675.22
2022-12-11T05:34:58.268Z,99670.00
2022-12-11T05:37:26.766Z,99660.38
2022-12-11T05:39:55.190Z,99668.78
2022-12-11T05:42:28.601Z,99664.28
2022-12-11T05:44:57.580Z,99662.38
2022-12-11T05:47:26.000Z,99660.75
2022-12-11T05:49:54.436Z,99667.84
2022-12-11T05:52:22.931Z,99660.56
2022-12-11T05:54:51.850Z,99655.94
2022-12-11T05:57:20.316Z,99658.63
2022-12-11T05:59:48.714Z,99654.41
2022-12-11T06:02:17.175Z,99654.03
2022-12-11T06:04:45.639Z,99654.78
2022-12-11T06:07:14.157Z,99649.81
2022-12-11T06:09:42.692Z,99654.81
2022-12-11T06:12:11.107Z,99655.56
2022-12-11T06:14:40.946Z,99652.97
2022-12-11T06:17:09.461Z,99656.16
2022-12-11T06:19:38.035Z,99654.63
2022-12-11T06:22:06.633Z,99660.44
2022-12-11T06:24:35.116Z,99653.56
2022-12-11T06:27:03.579Z,99656.66
2022-12-11T06:29:32.096Z,99659.03
2022-12-11T06:32:00.583Z,99654.88
2022-12-11T06:34:29.229Z,99648.19
2022-12-11T06:36:57.792Z,99658.59
2022-12-11T06:39:26.694Z,99649.44
2022-12-11T06:41:55.050Z,99652.53
2022-12-11T06:44:27.021Z,99648.50
2022-12-11T06:46:55.561Z,99662.50
2022-12-11T06:49:24.148Z,99660.13
2022-12-11T06:51:52.535Z,99657.03
2022-12-11T06:54:20.988Z,99662.75
2022-12-11T06:56:49.400Z,99670.34
2022-12-11T06:59:18.432Z,99664.09
2022-12-11T07:01:47.033Z,99666.47
2022-12-11T07:04:15.509Z,99673.97
2022-12-11T07:06:44.480Z,99667.09
2022-12-11T07:09:13.170Z,99668.53
2022-12-11T07:11:41.758Z,99673.44
2022-12-11T07:14:10.631Z,99676.88
2022-12-11T07:16:39.155Z,99676.47
2022-12-11T07:19:07.706Z,99667.22
2022-12-11T07:21:39.158Z,99676.56
2022-12-11T07:24:08.254Z,99675.09
2022-12-11T07:26:37.104Z,99683.16
2022-12-11T07:29:08.599Z,99681.16
2022-12-11T07:31:37.112Z,99687.22
2022-12-11T07:34:07.841Z,99687.59
2022-12-11T07:36:36.372Z,99696.47
2022-12-11T07:39:05.017Z,99700.22
2022-12-11T07:41:33.417Z,99689.06
2022-12-11T07:44:02.455Z,99683.06
2022-12-11T07:46:33.753Z,99692.78
2022-12-11T07:49:02.876Z,99695.16
2022-12-11T07:51:39.016Z,99688.38
2022-12-11T07:54:16.793Z,99690.16
2022-12-11T07:56:49.859Z,99694.56
2022-12-11T07:59:21.360Z,99687.81
2022-12-11T08:01:49.918Z,99690.22
2022-12-11T08:04:18.321Z,99688.06
2022-12-11T08:06:47.783Z,99703.41
2022-12-11T08:09:21.025Z,99695.34
2022-12-11T08:11:53.529Z,99695.34
2022-12-11T08:14:22.258Z,99683.81
2022-12-11T08:16:50.976Z,99700.47
2022-12-11T08:19:19.574Z,99697.97
2022-12-11T08:21:48.148Z,99688.13
2022-12-11T08:24:20.261Z,99691.91
2022-12-11T08:26:49.284Z,99688.97
2022-12-11T08:29:17.796Z,99691.09
2022-12-11T08:31:46.252Z,99689.44
2022-12-11T08:34:14.824Z,99685.28
2022-12-11T08:36:44.293Z,99687.75
2022-12-11T08:39:12.674Z,99686.34
2022-12-11T08:41:41.160Z,99683.97
2022-12-11T08:44:16.639Z,99682.19
2022-12-11T08:46:45.884Z,99691.72
2022-12-11T08:49:14.468Z,99675.78
2022-12-11T08:51:42.940Z,99691.81
2022-12-11T08:54:12.022Z,99681.72
2022-12-11T08:56:40.404Z,99692.06
2022-12-11T08:59:11.047Z,99687.56
2022-12-11T09:01:39.616Z,99692.91
2022-12-11T09:04:08.317Z,99697.41
2022-12-11T09:06:36.776Z,99694.94
2022-12-11T09:09:06.598Z,99697.66
2022-12-11T09:11:38.077Z,99692.91
2022-12-11T09:14:08.111Z,99697.09
2022-12-11T09:16:40.702Z,99692.91
2022-12-11T09:19:13.882Z,99691.25
2022-12-11T09:21:42.911Z,99688.63
2022-12-11T09:24:13.440Z,99696.38
2022-12-11T09:26:42.286Z,99692.09
2022-12-11T09:29:11.821Z,99693.97
2022-12-11T09:31:40.505Z,99690.53
2022-12-11T09:34:12.880Z,99688.38
2022-12-11T09:36:44.246Z,99687.53
2022-12-11T09:39:13.405Z,99689.41
2022-12-11T09:42:18.344Z,99683.47
2022-12-11T09:45:01.520Z,99685.97
2022-12-11T09:47:45.433Z,99687.53
2022-12-11T09:50:28.864Z,99683.13
2022-12-11T09:53:14.385Z,99686.56
2022-12-11T09:55:42.739Z,99668.22
2022-12-11T09:58:42.680Z,99677.75
2022-12-11T10:01:30.652Z,99673.53
2022-12-11T10:04:22.299Z,99676.50
2022-12-11T10:07:03.430Z,99674.34
2022-12-11T10:10:15.884Z,99668.53
2022-12-11T10:13:12.877Z,99661.03
2022-12-11T10:16:01.116Z,99661.38
2022-12-11T10:18:31.086Z,99664.69
2022-12-11T10:20:59.662Z,99663.38
2022-12-11T10:23:47.925Z,99666.50
2022-12-11T10:26:21.764Z,99662.19
2022-12-11T10:28:50.762Z,99662.06
2022-12-11T10:31:57.499Z,99665.41
2022-12-11T10:34:38.668Z,99658.38
2022-12-11T10:37:07.111Z,99663.13
2022-12-11T10:39:35.511Z,99667.16
2022-12-11T10:42:04.799Z,99671.06
2022-12-11T10:44:33.605Z,99666.69
2022-12-11T10:47:13.715Z,99661.25
2022-12-11T10:49:58.866Z,99663.63
2022-12-11T10:52:39.550Z,99662.72
2022-12-11T10:55:26.337Z,99657.75
2022-12-11T10:58:03.057Z,99647.66
2022-12-11T11:00:41.285Z,99652.53
2022-12-11T11:03:26.889Z,99639.25
2022-12-11T11:06:18.362Z,99635.81
2022-12-11T11:08:57.809Z,99634.59
2022-12-11T11:11:38.498Z,99630.06
2022-12-11T11:14:16.866Z,99631.16
2022-12-11T11:16:49.280Z,99625.47
2022-12-11T11:19:36.572Z,99628.31
2022-12-11T11:22:16.492Z,99622.59
2022-12-11T11:24:59.665Z,99621.66
2022-12-11T11:28:03.684Z,99616.66
2022-12-11T11:30:37.750Z,99624.41
2022-12-11T11:33:26.549Z,99623.69
2022-12-11T11:36:00.454Z,99624.75
2022-12-11T11:38:38.634Z,99621.44
2022-12-11T11:41:25.691Z,99613.56
2022-12-11T11:44:00.495Z,99603.94
2022-12-11T11:46:41.333Z,99617.97
2022-12-11T11:49:39.033Z,99603.09
2022-12-11T11:52:14.555Z,99610.00
2022-12-11T11:55:02.382Z,99598.22
2022-12-11T11:57:35.411Z,99594.44
2022-12-11T12:00:16.083Z,99601.22
2022-12-11T12:02:46.984Z,99601.81
2022-12-11T12:05:16.059Z,99594.91
2022-12-11T12:07:56.957Z,99599.09
2022-12-11T12:10:44.306Z,99592.06
2022-12-11T12:13:51.237Z,99591.69
2022-12-11T12:17:02.511Z,99595.59
2022-12-11T12:20:04.792Z,99591.09
2022-12-11T12:22:51.202Z,99590.97
2022-12-11T12:25:40.517Z,99590.97
2022-12-11T12:28:29.653Z,99580.66
2022-12-11T12:31:18.921Z,99583.16
2022-12-11T12:34:03.295Z,99593.16
2022-12-11T12:37:02.563Z,99594.91
2022-12-11T12:40:13.186Z,99593.59
2022-12-11T12:42:41.762Z,99586.00
2022-12-11T12:45:38.102Z,99585.50
2022-12-11T12:48:08.199Z,99579.09
2022-12-11T12:50:45.409Z,99581.84
2022-12-11T12:53:27.401Z,99581.59
2022-12-11T12:55:58.199Z,99569.00
2022-12-11T12:58:47.153Z,99567.09
2022-12-11T13:01:19.377Z,99566.84
2022-12-11T13:04:20.779Z,99559.47
2022-12-11T13:06:57.066Z,99558.41
2022-12-11T13:09:29.602Z,99545.72
2022-12-11T13:11:58.865Z,99552.00
2022-12-11T13:14:33.811Z,99547.59
2022-12-11T13:17:28.381Z,99556.38
2022-12-11T13:20:21.221Z,99561.25
2022-12-11T13:23:29.529Z,99549.13
2022-12-11T13:26:04.122Z,99557.38
2022-12-11T13:28:41.393Z,99550.44
2022-12-11T13:31:39.464Z,99551.75
2022-12-11T13:34:19.497Z,99557.13
2022-12-11T13:36:51.406Z,99560.66
2022-12-11T13:39:24.784Z,99565.88
2022-12-11T13:42:03.767Z,99567.34
2022-12-11T13:44:41.115Z,99558.66
2022-12-11T13:47:17.022Z,99563.28
2022-12-11T13:49:50.549Z,99567.94
2022-12-11T13:52:22.206Z,99564.22
2022-12-11T13:54:54.283Z,99559.00
2022-12-11T13:57:28.410Z,99555.44
2022-12-11T13:59:59.509Z,99558.28
2022-12-11T14:02:38.288Z,99561.03
2022-12-11T14:05:11.338Z,99555.09
2022-12-11T14:07:48.714Z,99562.00
2022-12-11T14:10:18.198Z,99567.59
2022-12-11T14:13:03.142Z,99565.66
2022-12-11T14:15:33.495Z,99564.84
2022-12-11T14:18:02.349Z,99574.31
2022-12-11T14:20:35.695Z,99568.97
2022-12-11T14:23:09.853Z,99577.31
2022-12-11T14:25:38.212Z,99581.34
2022-12-11T14:28:17.043Z,99569.59
2022-12-11T14:30:51.797Z,99560.66
2022-12-11T14:33:24.598Z,99570.19
2022-12-11T14:35:55.805Z,99566.63
2022-12-11T14:38:49.477Z,99569.00
2022-12-11T14:41:23.613Z,99570.78
2022-12-11T14:43:57.205Z,99563.03
2022-12-11T14:46:55.156Z,99574.00
2022-12-11T14:49:23.791Z,99569.22
2022-12-11T14:51:55.158Z,99567.09
2022-12-11T14:54:42.350Z,99566.84
2022-12-11T14:57:26.445Z,99572.53
2022-12-11T14:59:55.507Z,99570.75
2022-12-11T15:02:35.379Z,99575.28
2022-12-11T15:05:21.716Z,99575.28
2022-12-11T15:08:02.933Z,99581.97
2022-12-11T15:11:12.675Z,99580.19
2022-12-11T15:14:00.698Z,99577.56
2022-12-11T15:16:34.960Z,99579.34
2022-12-11T15:19:03.709Z,99581.84
2022-12-11T15:21:35.390Z,99579.69
2022-12-11T15:24:07.901Z,99583.38
2022-12-11T15:26:49.518Z,99581.72
2022-12-11T15:29:28.852Z,99588.16
2022-12-11T15:32:14.849Z,99573.63
2022-12-11T15:34:58.752Z,99582.09
2022-12-11T15:37:29.903Z,99579.22
2022-12-11T15:40:01.637Z,99584.56
2022-12-11T15:42:39.887Z,99593.25
2022-12-11T15:45:13.587Z,99589.78
2022-12-11T15:47:42.678Z,99593.09
2022-12-11T15:50:28.629Z,99589.44
2022-12-11T15:52:58.236Z,99585.38
2022-12-11T15:55:29.791Z,99597.41
2022-12-11T15:58:06.220Z,99589.44
2022-12-11T16:00:34.857Z,99593.81
2022-12-11T16:03:03.328Z,99594.75
2022-12-11T16:05:31.729Z,99590.72
2022-12-11T16:08:00.361Z,99593.72
2022-12-11T16:10:29.598Z,99605.69
2022-12-11T16:12:59.770Z,99600.19
2022-12-11T16:15:28.771Z,99596.31
2022-12-11T16:18:13.397Z,99597.59
2022-12-11T16:20:43.792Z,99599.66
2022-12-11T16:23:14.735Z,99609.13
2022-12-11T16:25:44.904Z,99590.47
2022-12-11T16:28:16.411Z,99598.31
2022-12-11T16:30:45.516Z,99606.16
2022-12-11T16:33:15.201Z,99608.66
2022-12-11T16:35:43.971Z,99602.94
2022-12-11T16:38:18.789Z,99596.06
2022-12-11T16:40:47.441Z,99599.50
2022-12-11T16:43:15.906Z,99604.41
2022-12-11T16:45:44.825Z,99599.66
2022-12-11T16:48:13.278Z,99597.16
2022-12-11T16:50:42.381Z,99591.09
2022-12-11T16:53:13.276Z,99592.78
2022-12-11T16:55:42.440Z,99596.31
2022-12-11T16:58:32.162Z,99589.91
2022-12-11T17:01:03.126Z,99592.97
2022-12-11T17:03:36.352Z,99590.13
2022-12-11T17:06:08.550Z,99577.91
2022-12-11T17:08:37.418Z,99584.19
2022-12-11T17:11:11.766Z,99585.97
2022-12-11T17:13:40.577Z,99588.81
2022-12-11T17:16:11.889Z,99592.03
2022-12-11T17:18:56.280Z,99592.97
2022-12-11T17:21:25.250Z,99592.97
2022-12-11T17:23:54.206Z,99597.63
2022-12-11T17:26:23.786Z,99590.28
2022-12-11T17:28:52.382Z,99593.59
2022-12-11T17:31:21.756Z,99593.47
2022-12-11T17:33:50.822Z,99594.31
2022-12-11T17:36:22.638Z,99597.75
2022-12-11T17:38:54.755Z,99605.25
2022-12-11T17:41:24.186Z,99592.44
2022-12-11T17:43:54.586Z,99582.56
2022-12-11T17:46:23.320Z,99597.28
2022-12-11T17:48:52.110Z,99592.53
2022-12-11T17:51:24.217Z,99598.00
2022-12-11T17:53:55.597Z,99604.91
2022-12-11T17:56:24.508Z,99598.22
2022-12-11T17:58:53.120Z,99603.84
2022-12-11T18:01:21.893Z,99603.22
2022-12-11T18:03:50.587Z,99605.50
2022-12-11T18:06:23.058Z,99603.47
2022-12-11T18:08:51.541Z,99603.84
2022-12-11T18:11:21.706Z,99605.84
2022-12-11T18:13:52.309Z,99607.75
2022-12-11T18:16:35.177Z,99605.63
2022-12-11T18:19:03.855Z,99609.66
2022-12-11T18:21:35.621Z,99603.09
2022-12-11T18:24:04.405Z,99604.75
2022-12-11T18:26:33.062Z,99600.63
2022-12-11T18:29:01.850Z,99599.56
2022-12-11T18:31:30.613Z,99605.38
2022-12-11T18:33:59.295Z,99603.00
2022-12-11T18:36:28.052Z,99608.84
2022-12-11T18:38:56.447Z,99607.63
2022-12-11T18:41:25.022Z,99606.56
2022-12-11T18:43:54.889Z,99607.63
2022-12-11T18:46:23.813Z,99605.50
2022-12-11T18:48:52.357Z,99596.81
2022-12-11T18:51:24.111Z,99600.13
2022-12-11T18:53:52.830Z,99599.53
2022-12-11T18:56:26.119Z,99599.44
2022-12-11T18:58:54.459Z,99600.38
2022-12-11T19:01:26.443Z,99595.97
2022-12-11T19:04:03.475Z,99595.38
2022-12-11T19:06:35.570Z,99593.16
2022-12-11T19:09:06.526Z,99604.31
2022-12-11T19:11:36.920Z,99596.94
2022-12-11T19:14:06.409Z,99593.16
2022-12-11T19:16:42.353Z,99595.28
2022-12-11T19:19:16.974Z,99601.22
2022-12-11T19:21:45.789Z,99611.91
2022-12-11T19:24:20.868Z,99599.91
2022-12-11T19:26:49.267Z,99601.56
2022-12-11T19:29:38.259Z,99610.59
2022-12-11T19:32:06.918Z,99602.88
2022-12-11T19:34:35.396Z,99606.31
2022-12-11T19:37:03.755Z,99609.53
2022-12-11T19:39:32.256Z,99613.09
2022-12-11T19:42:00.702Z,99606.69
2022-12-11T19:44:29.143Z,99596.56
2022-12-11T19:46:57.652Z,99594.78
2022-12-11T19:49:26.288Z,99597.03
2022-12-11T19:51:55.203Z,99600.38
2022-12-11T19:54:24.585Z,99594.69
2022-12-11T19:56:53.482Z,99598.69
2022-12-11T19:59:22.102Z,99599.53
2022-12-11T20:01:50.700Z,99589.06
2022-12-11T20:04:20.050Z,99594.31
2022-12-11T20:06:49.171Z,99596.22
2022-12-11T20:09:18.153Z,99600.00
2022-12-11T20:11:47.378Z,99605.59
2022-12-11T20:14:25.230Z,99599.41
2022-12-11T20:17:11.316Z,99601.41
2022-12-11T20:19:40.826Z,99596.94
2022-12-11T20:22:09.643Z,99597.88
2022-12-11T20:24:41.200Z,99597.53
2022-12-11T20:27:10.113Z,99606.78
2022-12-11T20:29:41.477Z,99595.84
2022-12-11T20:32:11.558Z,99599.91
2022-12-11T20:34:40.350Z,99595.97
2022-12-11T20:37:08.985Z,99593.25
2022-12-11T20:39:37.999Z,99598.00
2022-12-11T20:42:06.441Z,99593.97
2022-12-11T20:44:34.905Z,99592.19
2022-12-11T20:47:03.333Z,99593.72
2022-12-11T20:49:31.836Z,99586.94
2022-12-11T20:52:00.636Z,99594.44
2022-12-11T20:54:29.290Z,99586.13
2022-12-11T20:56:57.847Z,99583.25
2022-12-11T20:59:27.177Z,99583.88
2022-12-11T21:01:55.953Z,99587.91
2022-12-11T21:04:25.158Z,99588.94
2022-12-11T21:06:56.394Z,99592.06
2022-12-11T21:09:27.737Z,99587.78
2022-12-11T21:12:00.867Z,99585.97
2022-12-11T21:14:29.874Z,99594.56
2022-12-11T21:16:58.551Z,99583.03
2022-12-11T21:19:27.181Z,99582.31
2022-12-11T21:21:56.327Z,99583.88
2022-12-11T21:24:27.973Z,99585.53
2022-12-11T21:26:59.023Z,99582.09
2022-12-11T21:29:30.091Z,99588.00
2022-12-11T21:31:59.102Z,99590.88
2022-12-11T21:34:27.685Z,99588.25
2022-12-11T21:36:57.028Z,99582.31
2022-12-11T21:39:28.308Z,99586.34
2022-12-11T21:41:58.120Z,99594.91
2022-12-11T21:47:15.574Z,99581.72
2022-12-11T21:49:44.238Z,99587.66
2022-12-11T21:52:12.754Z,99584.47
2022-12-11T21:54:41.534Z,99580.06
2022-12-11T21:57:09.976Z,99577.31
2022-12-11T21:59:38.588Z,99573.38
2022-12-11T22:02:07.057Z,99574.22
2022-12-11T22:04:37.023Z,99587.28
2022-12-11T22:07:05.517Z,99581.81
2022-12-11T22:09:33.979Z,99581.00
2022-12-11T22:12:02.373Z,99587.53
2022-12-11T22:14:31.406Z,99581.09
2022-12-11T22:17:00.447Z,99585.28
2022-12-11T22:19:32.455Z,99582.69
2022-12-11T22:22:01.216Z,99582.44
2022-12-11T22:24:29.640Z,99582.78
2022-12-11T22:26:58.158Z,99577.81
2022-12-11T22:29:26.530Z,99576.84
2022-12-11T22:31:55.321Z,99573.63
2022-12-11T22:34:23.930Z,99571.50
2022-12-11T22:36:52.445Z,99577.06
2022-12-11T22:39:21.095Z,99573.16
2022-12-11T22:41:49.477Z,99575.06
2022-12-11T22:44:21.194Z,99573.06
2022-12-11T22:46:50.795Z,99580.19
2022-12-11T22:49:20.775Z,99572.81
2022-12-11T22:51:50.039Z,99577.78
2022-12-11T22:54:18.475Z,99583.72
2022-12-11T22:56:46.901Z,99585.28
2022-12-11T22:59:15.820Z,99578.63
2022-12-11T23:01:44.495Z,99585.63
2022-12-11T23:04:12.931Z,99581.25
2022-12-11T23:06:41.385Z,99580.53
2022-12-11T23:09:10.055Z,99593.47
2022-12-11T23:11:39.000Z,99589.69
2022-12-11T23:14:10.532Z,99591.44
2022-12-11T23:16:39.021Z,99579.81
2022-12-11T23:19:07.733Z,99586.34
2022-12-11T23:21:36.155Z,99589.69
2022-12-11T23:24:05.303Z,99586.81
2022-12-11T23:26:34.106Z,99586.25
2022-12-11T23:29:03.069Z,99579.34
2022-12-11T23:31:31.561Z,99588.84
2022-12-11T23:34:00.263Z,99585.88
2022-12-11T23:36:30.099Z,99583.25
2022-12-11T23:38:58.592Z,99588.84
2022-12-11T23:41:27.070Z,99591.94
2022-12-11T23:43:55.664Z,99590.03
2022-12-11T23:46:25.491Z,99588.16
2022-12-11T23:48:54.945Z,99580.53
2022-12-11T23:51:25.525Z,99582.69
2022-12-11T23:53:54.474Z,99575.53
2022-12-11T23:56:30.124Z,99573.38
2022-12-11T23:58:58.951Z,99578.41
